ADDS METAR Data INFO
IDs: Format: Raw Decoded Include TAF

Data at: 0316 UTC 20 Jul 2018

KOCF 200251Z AUTO 17004KT 10SM CLR 26/24 A2998 RMK AO2 SLP154 T02560244 53010 $
KOCF 200151Z AUTO 17004KT 10SM CLR 26/24 A2997 RMK AO2 SLP151 T02560244 $
KOCF 200051Z AUTO 20004KT 10SM CLR 26/25 A2996 RMK AO2 SLP147 T02610250 $
KOCF 192351Z AUTO 19004KT 10SM CLR 27/25 A2995 RMK AO2 SLP144 60000 T02720250 10278 20267 402780244 55002 $
KOCF 192251Z 22005KT 10SM FEW015 27/24 A2995 RMK AO2 SLP142 T02720244 $
KOCF 192151Z 20006KT 10SM FEW010 27/24 A2995 RMK AO2 SLP142 T02720244 $
KOCF 192051Z 22006KT 10SM CLR 27/24 A2996 RMK AO2 SLP146 60000 T02720244 56008 $
KOCF 192003Z 23007KT 10SM FEW010 27/24 A2997 RMK AO2 $
KOCF 191951Z 21006KT 10SM BKN010 27/24 A2997 RMK AO2 SLP150 T02670239 $
KOCF 191941Z 23008KT 10SM BKN010 27/24 A2997 RMK AO2 $
KOCF 191914Z 24007KT 210V270 10SM BKN008 27/25 A2997 RMK AO2 LTG DSNT SE CIG 007V012 $
KOCF 191904Z 24007KT 10SM BKN010 27/24 A2997 RMK AO2 LTG DSNT SE AND S CIG 008V012 $
KOCF 191851Z 26004KT 10SM SCT014 BKN039 27/24 A2997 RMK AO2 LTG DSNT S RAB05E21 SLP148 P0000 T02670244 $
KOCF 191751Z 24010KT 10SM FEW014 SCT018 BKN039 28/25 A2998 RMK AO2 SLP154 60023 T02780250 10278 20250 58005 $
KOCF 191746Z 25007KT 10SM SCT014 SCT018 BKN039 28/25 A2999 RMK AO2 LTG DSNT W $
KOCF 191720Z 23008KT 10SM BKN012 BKN050 27/26 A2999 RMK AO2 LTG DSNT E-SW $
KOCF 191658Z 23009KT 10SM FEW012 SCT025 BKN060 27/26 A3000 RMK AO2 LTG DSNT SE $
KOCF 191651Z COR 23007KT 10SM SCT025 BKN055 27/26 A3001 RMK AO2 LTG DSNT SE RAE28 SLP162 P0000 T02670256 $
KOCF 191551Z 21005KT 5SM -RA BR FEW017 SCT060 OVC070 26/24 A3001 RMK AO2 LTG DSNT NW SLP164 P0008 T02560244 $
KOCF 191503Z 20004KT 5SM RA BR FEW007 BKN070 OVC090 25/24 A3000 RMK AO2 LTG DSNT NE AND E P0002 $
KOCF 191451Z 21005KT 10SM -RA FEW030 OVC095 25/24 A3000 RMK AO2 LTG DSNT E AND SW TSE1356B26E47 SLP160 P0003 60015 T02500244 50003 $
KOCF 191432Z 19006KT 10SM VCTS -RA FEW021 SCT070 OVC090 25/24 A3001 RMK AO2 LTG DSNT S TSE1356B26 P0002 $
KOCF 191351Z 22004KT 2SM VCTS RA BR BKN009 25/24 A3000 RMK AO2 LTG DSNT SW AND W TSB41RAB1252 SLP161 P0012 T02500244 $
KOCF 191347Z 22006KT 2SM VCTS RA BR BKN009 26/24 A3000 RMK AO2 LTG DSNT SW AND W TSB41RAB1252 P0011 $
KOCF 191302Z 23005KT 2SM -RA BR BKN009 26/24 A2999 RMK AO2 LTG DSNT SW RAB1252 P0003 $
KOCF 191253Z COR 25008KT 2SM +RA BR BKN009 27/25 A2999 RMK AO2 LTG DSNT SW RAB52 P0001 $
KOCF 191251Z 24009KT 9SM SCT014 27/25 A2999 RMK AO2 LTG DSNT SW SLP157 T02720250 $
KOCF 191151Z 19006KT 10SM CLR 26/24 A2997 RMK AO2 LTG DSNT SW AND W SLP151 70014 T02560244 10256 20244 53008 $
KOCF 191051Z 18007KT 10SM CLR 24/24 A2996 RMK AO2 LTG DSNT W SLP147 T02440239 $
KOCF 190951Z AUTO 17004KT 10SM CLR 24/24 A2995 RMK AO2 LTG DSNT W SLP144 T02440239 $
KOCF 190851Z AUTO 18005KT 10SM CLR 24/24 A2995 RMK AO2 SLP143 T02440239 56010 $
KOCF 190751Z AUTO 18004KT 10SM CLR 24/24 A2995 RMK AO2 SLP143 T02440239 $
KOCF 190651Z AUTO 17005KT 10SM CLR 24/24 A2996 RMK AO2 SLP146 T02440239 $
KOCF 190551Z AUTO 18004KT 10SM CLR 24/23 A2998 RMK AO2 SLP153 T02440233 10272 20244 58003 $
KOCF 190451Z AUTO 18005KT 10SM BKN085 25/24 A2999 RMK AO2 SLP157 T02500244 $
KOCF 190351Z AUTO 19003KT 10SM CLR 25/25 A3000 RMK AO2 SLP159 T02500250 $
KOCF 190324Z AUTO 15003KT 10SM FEW023 26/25 A3000 RMK AO2 $
KOCF 190251Z AUTO 00000KT 10SM SCT023 BKN027 BKN033 26/25 A2999 RMK AO2 SLP156 T02560250 51008 $
KOCF 190249Z AUTO 00000KT 10SM SCT023 SCT027 BKN033 26/25 A2999 RMK AO2 $
KOCF 190229Z AUTO 00000KT 10SM BKN023 BKN028 BKN037 26/25 A2999 RMK AO2 $
KOCF 190151Z AUTO 18003KT 10SM CLR 26/25 A2998 RMK AO2 SLP152 T02610250 $
KOCF 190051Z AUTO 18004KT 10SM CLR 27/24 A2997 RMK AO2 SLP148 T02670244 $
KOCF 182351Z AUTO 23004KT 10SM CLR 27/25 A2997 RMK AO2 SLP148 60007 T02720250 10306 20267 403060244 55004 $
KOCF 182251Z COR 18007KT 10SM SCT032 27/25 A2996 RMK AO2 RAB2155E10 SLP146 P0007 T02720250 $
KOCF 182151Z 18010KT 10SM SCT024 29/26 A2997 RMK AO2 LTG DSNT SW TSE04 SLP150 T02890256 $
KOCF 182110Z 18011KT 10SM FEW025 30/25 A2998 RMK AO2 TSE04 $
KOCF 182051Z 19011KT 10SM VCTS FEW025 SCT040 29/24 A2998 RMK AO2 TSB49 SLP152 T02940239 58012 $
KOCF 181951Z 21009KT 10SM FEW025 SCT034 30/25 A3000 RMK AO2 LTG DSNT SW SLP160 T03000250 $
KOCF 181851Z 20008KT 10SM FEW018 SCT025 29/26 A3001 RMK AO2 SLP164 T02940256 $
KOCF 181846Z 21009KT 10SM BKN018 BKN027 29/26 A3001 RMK AO2 LTG DSNT NW $
KOCF 181751Z 21006KT 10SM FEW037 28/24 A3003 RMK AO2 RAB39E50 SLP169 P0000 60007 T02780244 10300 20250 58003 $
KOCF 181651Z 23007KT 10SM FEW029 27/25 A3004 RMK AO2 LTG DSNT E-S RAE31 SLP173 P0002 T02670250 $
KOCF 181551Z 24006KT 5SM RA BR BKN023 OVC060 26/24 A3006 RMK AO2 LTG DSNT ALQDS TSE1454B1459E39RAE1455B29 SLP179 P0002 T02560239 $